createdAt,value
2018-12-07T00:00:03.323Z,9.656064
2018-12-07T00:00:15.732Z,9.656064
2018-12-07T00:00:28.116Z,9.656064
2018-12-07T00:00:40.550Z,9.656064
2018-12-07T00:00:52.929Z,9.656064
2018-12-07T00:01:05.314Z,8.04672
2018-12-07T00:01:17.711Z,8.04672
2018-12-07T00:01:30.086Z,12.874752
2018-12-07T00:01:42.563Z,12.874752
2018-12-07T00:01:55.103Z,12.874752
2018-12-07T00:02:07.464Z,8.04672
2018-12-07T00:02:19.849Z,12.874752
2018-12-07T00:02:32.227Z,16.09344
2018-12-07T00:02:44.635Z,16.09344
2018-12-07T00:02:57.000Z,16.09344
2018-12-07T00:03:09.375Z,16.09344
2018-12-07T00:03:21.807Z,16.09344
2018-12-07T00:03:34.186Z,16.09344
2018-12-07T00:03:46.581Z,16.09344
2018-12-07T00:03:59.031Z,16.09344
2018-12-07T00:04:11.413Z,12.874752
2018-12-07T00:04:23.872Z,12.874752
2018-12-07T00:04:36.249Z,12.874752
2018-12-07T00:04:48.647Z,12.874752
2018-12-07T00:05:01.012Z,14.484096
2018-12-07T00:05:13.399Z,16.09344
2018-12-07T00:05:25.766Z,16.09344
2018-12-07T00:05:38.154Z,19.312128
2018-12-07T00:05:50.530Z,19.312128
2018-12-07T00:06:02.910Z,19.312128
2018-12-07T00:06:15.303Z,12.874752
2018-12-07T00:06:27.802Z,14.484096
2018-12-07T00:06:40.303Z,14.484096
2018-12-07T00:06:52.686Z,14.484096
2018-12-07T00:07:05.042Z,8.04672
2018-12-07T00:07:17.425Z,8.04672
2018-12-07T00:07:29.808Z,16.09344
2018-12-07T00:07:42.192Z,17.702784
2018-12-07T00:07:54.561Z,17.702784
2018-12-07T00:08:06.931Z,17.702784
2018-12-07T00:08:19.293Z,17.702784
2018-12-07T00:08:31.678Z,17.702784
2018-12-07T00:08:45.225Z,17.702784
2018-12-07T00:08:57.839Z,17.702784
2018-12-07T00:09:10.235Z,11.265408
2018-12-07T00:09:22.733Z,14.484096
2018-12-07T00:09:35.103Z,14.484096
2018-12-07T00:09:47.507Z,14.484096
2018-12-07T00:09:59.899Z,14.484096
2018-12-07T00:10:12.301Z,11.265408
2018-12-07T00:10:24.676Z,11.265408
2018-12-07T00:10:37.091Z,11.265408
2018-12-07T00:10:49.470Z,12.874752
2018-12-07T00:11:01.895Z,12.874752
2018-12-07T00:11:14.273Z,9.656064
2018-12-07T00:11:26.682Z,9.656064
2018-12-07T00:11:39.059Z,11.265408
2018-12-07T00:11:51.437Z,12.874752
2018-12-07T00:12:03.818Z,12.874752
2018-12-07T00:12:16.205Z,12.874752
2018-12-07T00:12:28.582Z,14.484096
2018-12-07T00:12:40.966Z,14.484096
2018-12-07T00:12:53.365Z,14.484096
2018-12-07T00:13:05.760Z,9.656064
2018-12-07T00:13:18.346Z,14.484096
2018-12-07T00:13:30.750Z,14.484096
2018-12-07T00:13:43.131Z,14.484096
2018-12-07T00:13:55.514Z,14.484096
2018-12-07T00:14:07.891Z,6.437376
2018-12-07T00:14:21.281Z,11.265408
2018-12-07T00:14:33.661Z,17.702784
2018-12-07T00:14:46.029Z,17.702784
2018-12-07T00:14:58.456Z,17.702784
2018-12-07T00:15:10.875Z,9.656064
2018-12-07T00:15:23.253Z,9.656064
2018-12-07T00:15:35.649Z,9.656064
2018-12-07T00:15:48.032Z,9.656064
2018-12-07T00:16:00.406Z,11.265408
2018-12-07T00:16:12.776Z,6.437376
2018-12-07T00:16:25.151Z,8.04672
2018-12-07T00:16:37.508Z,14.484096
2018-12-07T00:16:49.881Z,14.484096
2018-12-07T00:17:02.299Z,14.484096
2018-12-07T00:17:14.652Z,12.874752
2018-12-07T00:17:27.059Z,12.874752
2018-12-07T00:17:39.441Z,12.874752
2018-12-07T00:17:51.822Z,12.874752
2018-12-07T00:18:04.179Z,12.874752
2018-12-07T00:18:16.555Z,12.874752
2018-12-07T00:18:29.095Z,12.874752
2018-12-07T00:18:41.458Z,12.874752
2018-12-07T00:18:53.826Z,12.874752
2018-12-07T00:19:06.209Z,12.874752
2018-12-07T00:19:18.578Z,16.09344
2018-12-07T00:19:31.309Z,16.09344
2018-12-07T00:19:51.282Z,16.09344
2018-12-07T00:20:03.675Z,16.09344
2018-12-07T00:20:16.051Z,14.484096
2018-12-07T00:20:28.510Z,16.09344
2018-12-07T00:20:40.965Z,16.09344
2018-12-07T00:20:53.398Z,16.09344
2018-12-07T00:21:05.767Z,1.609344
2018-12-07T00:21:18.134Z,3.218688
2018-12-07T00:21:30.519Z,9.656064
2018-12-07T00:21:42.886Z,11.265408
2018-12-07T00:21:55.360Z,12.874752
2018-12-07T00:22:07.715Z,9.656064
2018-12-07T00:22:20.101Z,14.484096
2018-12-07T00:22:32.561Z,14.484096
2018-12-07T00:22:44.936Z,14.484096
2018-12-07T00:22:57.325Z,14.484096
2018-12-07T00:23:09.791Z,4.828032
2018-12-07T00:23:22.170Z,8.04672
2018-12-07T00:23:34.526Z,8.04672
2018-12-07T00:23:46.884Z,8.04672
2018-12-07T00:23:59.249Z,8.04672
2018-12-07T00:24:11.609Z,6.437376
2018-12-07T00:24:24.005Z,9.656064
2018-12-07T00:24:36.380Z,9.656064
2018-12-07T00:24:48.727Z,9.656064
2018-12-07T00:25:01.093Z,9.656064
2018-12-07T00:25:13.521Z,4.828032
2018-12-07T00:25:25.888Z,9.656064
2018-12-07T00:25:38.324Z,9.656064
2018-12-07T00:25:51.310Z,9.656064
2018-12-07T00:26:03.834Z,9.656064
2018-12-07T00:26:16.446Z,12.874752
2018-12-07T00:26:28.943Z,12.874752
2018-12-07T00:26:41.304Z,12.874752
2018-12-07T00:26:53.678Z,12.874752
2018-12-07T00:27:06.040Z,8.04672
2018-12-07T00:27:18.432Z,8.04672
2018-12-07T00:27:30.916Z,8.04672
2018-12-07T00:27:43.277Z,12.874752
2018-12-07T00:27:55.638Z,12.874752
2018-12-07T00:28:08.009Z,9.656064
2018-12-07T00:28:20.363Z,9.656064
2018-12-07T00:28:32.750Z,9.656064
2018-12-07T00:28:45.200Z,11.265408
2018-12-07T00:28:57.680Z,11.265408
2018-12-07T00:29:10.031Z,9.656064
2018-12-07T00:29:22.405Z,9.656064
2018-12-07T00:29:34.784Z,16.09344
2018-12-07T00:29:47.161Z,16.09344
2018-12-07T00:29:59.529Z,16.09344
2018-12-07T00:30:11.905Z,14.484096
2018-12-07T00:30:24.532Z,14.484096
2018-12-07T00:30:37.160Z,14.484096
2018-12-07T00:30:49.576Z,14.484096
2018-12-07T00:31:01.942Z,14.484096
2018-12-07T00:31:14.319Z,4.828032
2018-12-07T00:31:26.695Z,4.828032
2018-12-07T00:31:40.250Z,8.04672
2018-12-07T00:31:52.653Z,9.656064
2018-12-07T00:32:05.027Z,6.437376
2018-12-07T00:32:17.543Z,11.265408
2018-12-07T00:32:29.988Z,11.265408
2018-12-07T00:32:42.350Z,11.265408
2018-12-07T00:32:54.766Z,11.265408
2018-12-07T00:33:07.235Z,4.828032
2018-12-07T00:33:19.604Z,8.04672
2018-12-07T00:33:31.981Z,8.04672
2018-12-07T00:33:44.344Z,8.04672
2018-12-07T00:33:56.789Z,11.265408
2018-12-07T00:34:09.139Z,8.04672
2018-12-07T00:34:21.502Z,8.04672
2018-12-07T00:34:33.871Z,11.265408
2018-12-07T00:34:46.437Z,12.874752
2018-12-07T00:34:58.824Z,12.874752
2018-12-07T00:35:11.224Z,16.09344
2018-12-07T00:35:23.601Z,16.09344
2018-12-07T00:35:35.981Z,16.09344
2018-12-07T00:35:48.351Z,17.702784
2018-12-07T00:36:00.706Z,17.702784
2018-12-07T00:36:13.068Z,11.265408
2018-12-07T00:36:25.453Z,11.265408
2018-12-07T00:36:37.814Z,11.265408
2018-12-07T00:36:50.282Z,11.265408
2018-12-07T00:37:02.722Z,16.09344
2018-12-07T00:37:15.086Z,12.874752
2018-12-07T00:37:27.560Z,12.874752
2018-12-07T00:37:39.966Z,12.874752
2018-12-07T00:37:52.356Z,12.874752
2018-12-07T00:38:04.726Z,12.874752
2018-12-07T00:38:17.092Z,14.484096
2018-12-07T00:38:29.438Z,14.484096
2018-12-07T00:38:41.870Z,14.484096
2018-12-07T00:38:54.219Z,14.484096
2018-12-07T00:39:06.617Z,11.265408
2018-12-07T00:39:18.996Z,11.265408
2018-12-07T00:39:31.366Z,11.265408
2018-12-07T00:39:43.758Z,11.265408
2018-12-07T00:39:56.103Z,11.265408
2018-12-07T00:40:08.464Z,9.656064
2018-12-07T00:40:20.843Z,9.656064
2018-12-07T00:40:33.206Z,9.656064
2018-12-07T00:40:45.583Z,12.874752
2018-12-07T00:40:57.930Z,12.874752
2018-12-07T00:41:10.545Z,8.04672
2018-12-07T00:41:22.963Z,19.312128
2018-12-07T00:41:35.318Z,19.312128
2018-12-07T00:41:47.679Z,19.312128
2018-12-07T00:42:00.226Z,19.312128
2018-12-07T00:42:12.688Z,16.09344
2018-12-07T00:42:25.080Z,16.09344
2018-12-07T00:42:37.442Z,16.09344
2018-12-07T00:42:49.825Z,16.09344
2018-12-07T00:43:02.192Z,19.312128
2018-12-07T00:43:14.570Z,14.484096
2018-12-07T00:43:26.918Z,14.484096
2018-12-07T00:43:39.274Z,14.484096
2018-12-07T00:43:51.616Z,14.484096
2018-12-07T00:44:03.992Z,14.484096
2018-12-07T00:44:16.345Z,9.656064
2018-12-07T00:44:28.721Z,9.656064
2018-12-07T00:44:41.090Z,9.656064
2018-12-07T00:44:55.209Z,11.265408
2018-12-07T00:45:07.582Z,9.656064
2018-12-07T00:45:19.937Z,19.312128
2018-12-07T00:45:32.306Z,20.921472
2018-12-07T00:45:44.686Z,20.921472
2018-12-07T00:45:57.053Z,20.921472
2018-12-07T00:46:09.465Z,8.04672
2018-12-07T00:46:21.924Z,8.04672
2018-12-07T00:46:34.403Z,8.04672
2018-12-07T00:46:46.769Z,8.04672
2018-12-07T00:46:59.142Z,8.04672
2018-12-07T00:47:11.488Z,6.437376
2018-12-07T00:47:24.013Z,8.04672
2018-12-07T00:47:36.367Z,8.04672
2018-12-07T00:47:48.739Z,8.04672
2018-12-07T00:48:01.210Z,8.04672
2018-12-07T00:48:13.577Z,8.04672
2018-12-07T00:48:25.938Z,8.04672
2018-12-07T00:48:38.607Z,9.656064
2018-12-07T00:48:50.977Z,11.265408
2018-12-07T00:49:03.344Z,17.702784
2018-12-07T00:49:15.683Z,8.04672
2018-12-07T00:49:28.042Z,12.874752
2018-12-07T00:49:40.404Z,16.09344
2018-12-07T00:49:52.828Z,16.09344
2018-12-07T00:50:05.367Z,9.656064
2018-12-07T00:50:17.746Z,9.656064
2018-12-07T00:50:30.114Z,9.656064
2018-12-07T00:50:42.700Z,9.656064
2018-12-07T00:50:55.047Z,9.656064
2018-12-07T00:51:07.402Z,8.04672
2018-12-07T00:51:19.777Z,14.484096
2018-12-07T00:51:32.154Z,17.702784
2018-12-07T00:51:44.695Z,17.702784
2018-12-07T00:51:57.047Z,17.702784
2018-12-07T00:52:09.422Z,8.04672
2018-12-07T00:52:21.782Z,9.656064
2018-12-07T00:52:34.159Z,11.265408
2018-12-07T00:52:46.554Z,11.265408
2018-12-07T00:52:58.910Z,12.874752
2018-12-07T00:53:11.328Z,9.656064
2018-12-07T00:53:23.697Z,9.656064
2018-12-07T00:53:36.053Z,9.656064
2018-12-07T00:53:48.422Z,14.484096
2018-12-07T00:54:00.798Z,14.484096
2018-12-07T00:54:13.189Z,12.874752
2018-12-07T00:54:25.583Z,12.874752
2018-12-07T00:54:37.941Z,12.874752
2018-12-07T00:54:50.498Z,12.874752
2018-12-07T00:55:02.941Z,12.874752
2018-12-07T00:55:15.326Z,12.874752
2018-12-07T00:55:27.773Z,12.874752
2018-12-07T00:55:40.222Z,12.874752
2018-12-07T00:55:52.627Z,12.874752
2018-12-07T00:56:05.051Z,12.874752
2018-12-07T00:56:17.441Z,12.874752
2018-12-07T00:56:29.802Z,16.09344
2018-12-07T00:56:42.214Z,16.09344
2018-12-07T00:56:54.573Z,16.09344
2018-12-07T00:57:06.955Z,3.218688
2018-12-07T00:57:19.307Z,8.04672
2018-12-07T00:57:31.673Z,12.874752
2018-12-07T00:57:44.034Z,16.09344
2018-12-07T00:57:56.392Z,16.09344
2018-12-07T00:58:08.751Z,11.265408
2018-12-07T00:58:21.270Z,11.265408
2018-12-07T00:58:33.626Z,11.265408
2018-12-07T00:58:46.021Z,11.265408
2018-12-07T00:58:58.463Z,11.265408
2018-12-07T00:59:10.852Z,6.437376
2018-12-07T00:59:23.205Z,6.437376
2018-12-07T00:59:35.573Z,6.437376
2018-12-07T00:59:47.949Z,6.437376
2018-12-07T01:00:00.490Z,6.437376
2018-12-07T01:00:12.886Z,9.656064
2018-12-07T01:00:25.270Z,9.656064
2018-12-07T01:00:37.657Z,12.874752
2018-12-07T01:00:50.031Z,12.874752
2018-12-07T01:01:02.420Z,12.874752
2018-12-07T01:01:14.880Z,11.265408
2018-12-07T01:01:27.352Z,11.265408
2018-12-07T01:01:39.720Z,12.874752
2018-12-07T01:01:52.236Z,22.530816
2018-12-07T01:02:04.588Z,12.874752
2018-12-07T01:02:17.028Z,12.874752
2018-12-07T01:02:29.379Z,12.874752
2018-12-07T01:02:41.754Z,12.874752
2018-12-07T01:02:54.120Z,12.874752
2018-12-07T01:03:06.484Z,6.437376
2018-12-07T01:03:19.140Z,6.437376
2018-12-07T01:03:31.487Z,9.656064
2018-12-07T01:03:43.849Z,9.656064
2018-12-07T01:03:56.215Z,9.656064
2018-12-07T01:04:08.583Z,8.04672
2018-12-07T01:04:20.946Z,8.04672
2018-12-07T01:04:33.304Z,8.04672
2018-12-07T01:04:45.647Z,8.04672
2018-12-07T01:04:58.057Z,9.656064
2018-12-07T01:05:10.452Z,12.874752
2018-12-07T01:05:22.977Z,14.484096
2018-12-07T01:05:35.332Z,14.484096
2018-12-07T01:05:47.759Z,14.484096
2018-12-07T01:06:00.115Z,14.484096
2018-12-07T01:06:12.475Z,9.656064
2018-12-07T01:06:24.863Z,19.312128
2018-12-07T01:06:37.246Z,19.312128
2018-12-07T01:06:49.606Z,19.312128
2018-12-07T01:07:01.999Z,19.312128
2018-12-07T01:07:14.353Z,16.09344
2018-12-07T01:07:26.773Z,16.09344
2018-12-07T01:07:39.120Z,16.09344
2018-12-07T01:07:51.529Z,16.09344
2018-12-07T01:08:03.888Z,16.09344
2018-12-07T01:08:16.246Z,16.09344
2018-12-07T01:08:28.671Z,16.09344
2018-12-07T01:08:41.043Z,16.09344
2018-12-07T01:08:53.430Z,16.09344
2018-12-07T01:09:05.794Z,14.484096
2018-12-07T01:09:18.253Z,17.702784
2018-12-07T01:09:30.625Z,17.702784
2018-12-07T01:09:43.037Z,17.702784
2018-12-07T01:09:55.434Z,17.702784
2018-12-07T01:10:07.787Z,16.09344
2018-12-07T01:10:20.147Z,16.09344
2018-12-07T01:10:32.505Z,16.09344
2018-12-07T01:10:44.887Z,16.09344
2018-12-07T01:10:57.244Z,16.09344
2018-12-07T01:11:09.608Z,9.656064
2018-12-07T01:11:21.985Z,9.656064
2018-12-07T01:11:34.553Z,9.656064
2018-12-07T01:11:46.914Z,12.874752
2018-12-07T01:11:59.275Z,12.874752
2018-12-07T01:12:11.669Z,9.656064
2018-12-07T01:12:24.036Z,19.312128
2018-12-07T01:12:36.425Z,19.312128
2018-12-07T01:12:48.872Z,19.312128
2018-12-07T01:13:01.342Z,19.312128
2018-12-07T01:13:13.708Z,14.484096
2018-12-07T01:13:26.067Z,17.702784
2018-12-07T01:13:38.428Z,17.702784
2018-12-07T01:13:50.815Z,17.702784
2018-12-07T01:14:03.318Z,17.702784
2018-12-07T01:14:15.718Z,6.437376
2018-12-07T01:14:28.073Z,6.437376
2018-12-07T01:14:40.447Z,9.656064
2018-12-07T01:14:52.847Z,9.656064
2018-12-07T01:15:05.207Z,12.874752
2018-12-07T01:15:17.574Z,12.874752
2018-12-07T01:15:29.953Z,12.874752
2018-12-07T01:15:42.314Z,14.484096
2018-12-07T01:15:54.675Z,14.484096
2018-12-07T01:16:07.169Z,12.874752
2018-12-07T01:16:19.528Z,14.484096
2018-12-07T01:16:31.906Z,19.312128
2018-12-07T01:16:44.292Z,19.312128
2018-12-07T01:16:56.667Z,19.312128
2018-12-07T01:17:09.038Z,4.828032
2018-12-07T01:17:21.394Z,6.437376
2018-12-07T01:17:33.757Z,8.04672
2018-12-07T01:17:46.109Z,8.04672
2018-12-07T01:17:58.493Z,12.874752
2018-12-07T01:18:10.856Z,11.265408
2018-12-07T01:18:23.252Z,11.265408
2018-12-07T01:18:35.615Z,12.874752
2018-12-07T01:18:47.985Z,12.874752
2018-12-07T01:19:00.343Z,12.874752
2018-12-07T01:19:12.720Z,9.656064
2018-12-07T01:19:25.216Z,9.656064
2018-12-07T01:19:37.591Z,9.656064
2018-12-07T01:19:49.946Z,9.656064
2018-12-07T01:20:02.295Z,17.702784
2018-12-07T01:20:14.645Z,12.874752
2018-12-07T01:20:27.089Z,12.874752
2018-12-07T01:20:39.523Z,12.874752
2018-12-07T01:20:51.910Z,12.874752
2018-12-07T01:21:04.266Z,12.874752
2018-12-07T01:21:16.624Z,17.702784
2018-12-07T01:21:28.998Z,17.702784
2018-12-07T01:21:41.362Z,17.702784
2018-12-07T01:21:53.719Z,17.702784
2018-12-07T01:22:06.117Z,14.484096
2018-12-07T01:22:18.479Z,16.09344
2018-12-07T01:22:30.855Z,16.09344
2018-12-07T01:22:43.202Z,16.09344
2018-12-07T01:22:55.556Z,20.921472
2018-12-07T01:23:07.932Z,19.312128
2018-12-07T01:23:20.298Z,20.921472
2018-12-07T01:23:32.744Z,20.921472
2018-12-07T01:23:45.109Z,20.921472
2018-12-07T01:23:57.461Z,20.921472
2018-12-07T01:24:09.822Z,6.437376
2018-12-07T01:24:22.177Z,6.437376
2018-12-07T01:24:34.532Z,8.04672
2018-12-07T01:24:46.890Z,8.04672
2018-12-07T01:24:59.275Z,11.265408
2018-12-07T01:25:11.629Z,8.04672
2018-12-07T01:25:23.999Z,16.09344
2018-12-07T01:25:36.449Z,16.09344
2018-12-07T01:25:48.822Z,16.09344
2018-12-07T01:26:01.353Z,16.09344
2018-12-07T01:26:13.924Z,9.656064
2018-12-07T01:26:26.273Z,9.656064
2018-12-07T01:26:38.763Z,11.265408
2018-12-07T01:26:51.131Z,11.265408
2018-12-07T01:27:03.483Z,11.265408
2018-12-07T01:27:15.856Z,14.484096
2018-12-07T01:27:28.375Z,14.484096
2018-12-07T01:27:40.758Z,14.484096
2018-12-07T01:27:53.131Z,14.484096
2018-12-07T01:28:05.503Z,8.04672
2018-12-07T01:28:17.844Z,8.04672
2018-12-07T01:28:30.202Z,14.484096
2018-12-07T01:28:42.559Z,14.484096
2018-12-07T01:28:54.926Z,14.484096
2018-12-07T01:29:07.276Z,12.874752
2018-12-07T01:29:19.657Z,12.874752
2018-12-07T01:29:32.016Z,12.874752
2018-12-07T01:29:44.394Z,12.874752
2018-12-07T01:29:56.767Z,12.874752
2018-12-07T01:30:09.163Z,4.828032
2018-12-07T01:30:21.618Z,4.828032
2018-12-07T01:30:34.137Z,4.828032
2018-12-07T01:30:46.479Z,8.04672
2018-12-07T01:30:58.863Z,9.656064
2018-12-07T01:31:11.237Z,8.04672
2018-12-07T01:31:23.621Z,11.265408
2018-12-07T01:31:36.007Z,11.265408
2018-12-07T01:31:48.399Z,11.265408
2018-12-07T01:32:00.766Z,12.874752
2018-12-07T01:32:13.158Z,16.09344
2018-12-07T01:32:25.601Z,16.09344
2018-12-07T01:32:37.986Z,16.09344
2018-12-07T01:32:50.334Z,16.09344
2018-12-07T01:33:02.721Z,16.09344
2018-12-07T01:33:15.168Z,14.484096
2018-12-07T01:33:27.532Z,14.484096
2018-12-07T01:33:39.905Z,14.484096
2018-12-07T01:33:52.364Z,14.484096
2018-12-07T01:34:04.719Z,9.656064
2018-12-07T01:34:17.124Z,11.265408
2018-12-07T01:34:29.573Z,11.265408
2018-12-07T01:34:42.071Z,11.265408
2018-12-07T01:34:54.412Z,11.265408
2018-12-07T01:35:06.805Z,8.04672
2018-12-07T01:35:19.158Z,8.04672
2018-12-07T01:35:31.520Z,8.04672
2018-12-07T01:35:43.899Z,24.14016
2018-12-07T01:35:56.277Z,24.14016
2018-12-07T01:36:08.643Z,8.04672
2018-12-07T01:36:21.032Z,9.656064
2018-12-07T01:36:33.404Z,11.265408
2018-12-07T01:36:45.773Z,11.265408
2018-12-07T01:36:58.413Z,11.265408
2018-12-07T01:37:10.774Z,4.828032
2018-12-07T01:37:23.157Z,9.656064
2018-12-07T01:37:35.612Z,14.484096
2018-12-07T01:37:47.997Z,14.484096
2018-12-07T01:38:00.364Z,14.484096
2018-12-07T01:38:12.755Z,22.530816
2018-12-07T01:38:25.143Z,22.530816
2018-12-07T01:38:37.515Z,22.530816
2018-12-07T01:38:49.986Z,22.530816
2018-12-07T01:39:02.346Z,22.530816
2018-12-07T01:39:14.735Z,8.04672
2018-12-07T01:39:27.101Z,9.656064
2018-12-07T01:39:39.477Z,9.656064
2018-12-07T01:39:51.841Z,12.874752
2018-12-07T01:40:04.201Z,16.09344
2018-12-07T01:40:16.572Z,17.702784
2018-12-07T01:40:28.955Z,17.702784
2018-12-07T01:40:41.349Z,17.702784
2018-12-07T01:40:53.713Z,17.702784
2018-12-07T01:41:06.147Z,8.04672
2018-12-07T01:41:18.618Z,8.04672
2018-12-07T01:41:31.000Z,12.874752
2018-12-07T01:41:43.357Z,12.874752
2018-12-07T01:41:55.843Z,17.702784
2018-12-07T01:42:08.210Z,8.04672
2018-12-07T01:42:20.559Z,9.656064
2018-12-07T01:42:32.929Z,9.656064
2018-12-07T01:42:45.288Z,9.656064
2018-12-07T01:42:57.657Z,9.656064
2018-12-07T01:43:10.027Z,8.04672
2018-12-07T01:43:22.405Z,8.04672
2018-12-07T01:43:34.751Z,8.04672
2018-12-07T01:43:47.114Z,9.656064
2018-12-07T01:43:59.546Z,16.09344
2018-12-07T01:44:11.923Z,11.265408
2018-12-07T01:44:24.300Z,11.265408
2018-12-07T01:44:36.662Z,11.265408
2018-12-07T01:44:49.041Z,11.265408
2018-12-07T01:45:01.392Z,11.265408
2018-12-07T01:45:13.773Z,11.265408
2018-12-07T01:45:26.220Z,11.265408
2018-12-07T01:45:38.686Z,11.265408
2018-12-07T01:45:51.074Z,11.265408
2018-12-07T01:46:03.410Z,11.265408
2018-12-07T01:46:15.816Z,11.265408
2018-12-07T01:46:28.154Z,11.265408
2018-12-07T01:46:40.534Z,11.265408
2018-12-07T01:46:52.882Z,11.265408
2018-12-07T01:47:05.253Z,8.04672
2018-12-07T01:47:17.696Z,12.874752
2018-12-07T01:47:30.050Z,12.874752
2018-12-07T01:47:42.415Z,12.874752
2018-12-07T01:47:54.806Z,22.530816
2018-12-07T01:48:07.176Z,12.874752
2018-12-07T01:48:19.525Z,12.874752
2018-12-07T01:48:32.147Z,14.484096
2018-12-07T01:48:44.587Z,14.484096
2018-12-07T01:48:56.944Z,14.484096
2018-12-07T01:49:09.306Z,3.218688
2018-12-07T01:49:23.031Z,3.218688
2018-12-07T01:49:35.401Z,3.218688
2018-12-07T01:49:47.766Z,11.265408
2018-12-07T01:50:00.280Z,12.874752
2018-12-07T01:50:12.663Z,6.437376
2018-12-07T01:50:25.067Z,12.874752
2018-12-07T01:50:37.448Z,12.874752
2018-12-07T01:50:49.971Z,12.874752
2018-12-07T01:51:02.346Z,12.874752
2018-12-07T01:51:14.755Z,12.874752
2018-12-07T01:51:27.134Z,12.874752
2018-12-07T01:51:39.537Z,12.874752
2018-12-07T01:51:52.014Z,12.874752
2018-12-07T01:52:04.368Z,12.874752
2018-12-07T01:52:16.754Z,11.265408
2018-12-07T01:52:29.121Z,11.265408
2018-12-07T01:52:41.479Z,11.265408
2018-12-07T01:52:53.828Z,12.874752
2018-12-07T01:53:06.208Z,6.437376
2018-12-07T01:53:18.558Z,11.265408
2018-12-07T01:53:30.925Z,11.265408
2018-12-07T01:53:43.294Z,11.265408
2018-12-07T01:53:55.661Z,11.265408
2018-12-07T01:54:08.040Z,8.04672
2018-12-07T01:54:20.402Z,11.265408
2018-12-07T01:54:32.818Z,11.265408
2018-12-07T01:54:45.268Z,11.265408
2018-12-07T01:54:57.602Z,11.265408
2018-12-07T01:55:10.034Z,1.609344
2018-12-07T01:55:22.398Z,16.09344
2018-12-07T01:55:34.760Z,16.09344
2018-12-07T01:55:47.123Z,16.09344
2018-12-07T01:55:59.487Z,19.312128
2018-12-07T01:56:11.850Z,19.312128
2018-12-07T01:56:24.209Z,19.312128
2018-12-07T01:56:36.604Z,19.312128
2018-12-07T01:56:48.964Z,19.312128
2018-12-07T01:57:01.342Z,19.312128
2018-12-07T01:57:13.711Z,8.04672
2018-12-07T01:57:26.186Z,17.702784
2018-12-07T01:57:38.530Z,17.702784
2018-12-07T01:57:50.909Z,17.702784
2018-12-07T01:58:03.275Z,8.04672
2018-12-07T01:58:15.707Z,9.656064
2018-12-07T01:58:28.081Z,11.265408
2018-12-07T01:58:40.445Z,11.265408
2018-12-07T01:58:52.802Z,11.265408
2018-12-07T01:59:05.151Z,3.218688
2018-12-07T01:59:17.495Z,3.218688
2018-12-07T01:59:29.876Z,3.218688
2018-12-07T01:59:42.244Z,4.828032
2018-12-07T01:59:54.610Z,4.828032
2018-12-07T02:00:06.990Z,6.437376
2018-12-07T02:00:19.421Z,17.702784
2018-12-07T02:00:31.803Z,17.702784
2018-12-07T02:00:44.216Z,17.702784
2018-12-07T02:00:56.605Z,17.702784
2018-12-07T02:01:09.020Z,16.09344
2018-12-07T02:01:21.403Z,19.312128
2018-12-07T02:01:34.079Z,19.312128
2018-12-07T02:01:46.462Z,19.312128
2018-12-07T02:01:58.972Z,19.312128
2018-12-07T02:02:11.335Z,11.265408
2018-12-07T02:02:23.706Z,11.265408
2018-12-07T02:02:36.092Z,11.265408
2018-12-07T02:02:48.458Z,11.265408
2018-12-07T02:03:00.824Z,11.265408
2018-12-07T02:03:13.480Z,1.609344
2018-12-07T02:03:25.849Z,3.218688
2018-12-07T02:03:38.220Z,6.437376
2018-12-07T02:03:50.576Z,6.437376
2018-12-07T02:04:02.941Z,11.265408
2018-12-07T02:04:15.357Z,11.265408
2018-12-07T02:04:27.711Z,11.265408
2018-12-07T02:04:40.073Z,12.874752
2018-12-07T02:04:52.441Z,12.874752
2018-12-07T02:05:04.796Z,6.437376
2018-12-07T02:05:17.165Z,8.04672
2018-12-07T02:05:29.529Z,12.874752
2018-12-07T02:05:41.891Z,12.874752
2018-12-07T02:05:54.261Z,12.874752
2018-12-07T02:06:06.657Z,8.04672
2018-12-07T02:06:19.023Z,9.656064
2018-12-07T02:06:31.510Z,14.484096
2018-12-07T02:06:43.856Z,14.484096
2018-12-07T02:06:56.214Z,14.484096
2018-12-07T02:07:08.574Z,9.656064
2018-12-07T02:07:20.930Z,14.484096
2018-12-07T02:07:33.384Z,14.484096
2018-12-07T02:07:45.769Z,14.484096
2018-12-07T02:07:58.130Z,14.484096
2018-12-07T02:08:10.513Z,9.656064
2018-12-07T02:08:22.873Z,9.656064
2018-12-07T02:08:35.296Z,9.656064
2018-12-07T02:08:47.657Z,9.656064
2018-12-07T02:09:00.033Z,9.656064
2018-12-07T02:09:12.720Z,9.656064
2018-12-07T02:09:25.098Z,9.656064
2018-12-07T02:09:37.488Z,9.656064
2018-12-07T02:09:49.871Z,9.656064
2018-12-07T02:10:02.325Z,9.656064
2018-12-07T02:10:14.713Z,14.484096
2018-12-07T02:10:27.076Z,14.484096
2018-12-07T02:10:39.448Z,14.484096
2018-12-07T02:10:51.840Z,14.484096
2018-12-07T02:11:04.230Z,8.04672
2018-12-07T02:11:16.616Z,8.04672
2018-12-07T02:11:28.994Z,9.656064
2018-12-07T02:11:41.338Z,9.656064
2018-12-07T02:11:53.716Z,9.656064
2018-12-07T02:12:06.079Z,11.265408
2018-12-07T02:12:18.480Z,11.265408
2018-12-07T02:12:30.837Z,11.265408
2018-12-07T02:12:43.203Z,11.265408
2018-12-07T02:12:55.646Z,11.265408
2018-12-07T02:13:08.000Z,12.874752
2018-12-07T02:13:20.381Z,12.874752
2018-12-07T02:13:32.756Z,12.874752
2018-12-07T02:13:45.275Z,12.874752
2018-12-07T02:13:57.704Z,12.874752
2018-12-07T02:14:10.077Z,9.656064
2018-12-07T02:14:22.465Z,9.656064
2018-12-07T02:14:34.827Z,9.656064
2018-12-07T02:14:47.170Z,12.874752
2018-12-07T02:15:00.033Z,17.702784
2018-12-07T02:15:12.411Z,11.265408
2018-12-07T02:15:24.817Z,11.265408
2018-12-07T02:15:37.170Z,11.265408
2018-12-07T02:15:49.606Z,11.265408
2018-12-07T02:16:01.991Z,11.265408
2018-12-07T02:16:14.436Z,11.265408
2018-12-07T02:16:26.791Z,11.265408
2018-12-07T02:16:39.151Z,11.265408
2018-12-07T02:16:51.586Z,12.874752
2018-12-07T02:17:03.969Z,11.265408
2018-12-07T02:17:16.314Z,11.265408
2018-12-07T02:17:28.691Z,11.265408
2018-12-07T02:17:41.055Z,11.265408
2018-12-07T02:17:53.444Z,12.874752
2018-12-07T02:18:05.815Z,9.656064
2018-12-07T02:18:18.196Z,9.656064
2018-12-07T02:18:30.550Z,9.656064
2018-12-07T02:18:42.899Z,16.09344
2018-12-07T02:18:55.265Z,16.09344
2018-12-07T02:19:07.620Z,6.437376
2018-12-07T02:19:19.989Z,9.656064
2018-12-07T02:19:32.507Z,12.874752
2018-12-07T02:19:44.844Z,16.09344
2018-12-07T02:19:57.220Z,16.09344
2018-12-07T02:20:09.587Z,8.04672
2018-12-07T02:20:22.101Z,14.484096
2018-12-07T02:20:34.577Z,14.484096
2018-12-07T02:20:46.926Z,14.484096
2018-12-07T02:20:59.282Z,14.484096
2018-12-07T02:21:11.629Z,14.484096
2018-12-07T02:21:24.028Z,14.484096
2018-12-07T02:21:36.411Z,14.484096
2018-12-07T02:21:48.777Z,14.484096
2018-12-07T02:22:01.140Z,14.484096
2018-12-07T02:22:13.488Z,8.04672
2018-12-07T02:22:25.865Z,12.874752
2018-12-07T02:22:38.223Z,14.484096
2018-12-07T02:22:50.589Z,16.09344
2018-12-07T02:23:02.945Z,17.702784
2018-12-07T02:23:15.322Z,14.484096
2018-12-07T02:23:27.708Z,14.484096
2018-12-07T02:23:40.062Z,14.484096